GSLCT EGJB-EGBO
Flight info
| Callsign | GSLCT |
|---|---|
| Flight time | 0h 56m |
| Altitude | 7000 |
| Route | BRILL/N0172F060 DCT GIBSO/N0174F070 DCT MOSUN |
| Aircraft | DA42/L-SBDGRY/S |
Departure
| Time | 2026-04-28 13:36 |
|---|---|
| Airport | Guernsey Airport (EGJB) |
Arrival
| Time | 2026-04-28 14:32 |
|---|---|
| Airport | Wolverhampton Halfpenny Green Airport (EGBO) |
| Time | Latitude | Longitude | Altitude | Speed | Heading |
|---|---|---|---|---|---|
| 2026-04-28 12:42 | 49.43223 | -2.59843 | 318 ft | 0 kts | 87° |
| 2026-04-28 13:29 | 49.43225 | -2.59856 | 318 ft | 7 kts | 237° |
| 2026-04-28 13:30 | 49.43224 | -2.59923 | 317 ft | 5 kts | 322° |
| 2026-04-28 13:30 | 49.43260 | -2.59924 | 315 ft | 6 kts | 358° |
| 2026-04-28 13:30 | 49.43273 | -2.59925 | 315 ft | 0 kts | 1° |
| 2026-04-28 13:30 | 49.43285 | -2.59926 | 314 ft | 6 kts | 2° |
| 2026-04-28 13:31 | 49.43340 | -2.60026 | 306 ft | 19 kts | 271° |
| 2026-04-28 13:31 | 49.43333 | -2.60280 | 290 ft | 25 kts | 266° |
| 2026-04-28 13:31 | 49.43327 | -2.60501 | 287 ft | 21 kts | 267° |
| 2026-04-28 13:32 | 49.43339 | -2.60715 | 295 ft | 15 kts | 278° |
| 2026-04-28 13:32 | 49.43353 | -2.60831 | 297 ft | 9 kts | 281° |
| 2026-04-28 13:32 | 49.43362 | -2.60906 | 301 ft | 6 kts | 283° |
| 2026-04-28 13:32 | 49.43364 | -2.61015 | 305 ft | 13 kts | 268° |
| 2026-04-28 13:33 | 49.43361 | -2.61112 | 306 ft | 8 kts | 267° |
| 2026-04-28 13:33 | 49.43360 | -2.61151 | 306 ft | 0 kts | 266° |
| 2026-04-28 13:33 | 49.43359 | -2.61162 | 307 ft | 6 kts | 268° |
| 2026-04-28 13:33 | 49.43358 | -2.61232 | 307 ft | 6 kts | 273° |
| 2026-04-28 13:34 | 49.43359 | -2.61244 | 307 ft | 0 kts | 290° |
| 2026-04-28 13:34 | 49.43389 | -2.61302 | 309 ft | 12 kts | 312° |
| 2026-04-28 13:34 | 49.43448 | -2.61358 | 310 ft | 9 kts | 3° |
| 2026-04-28 13:34 | 49.43466 | -2.61323 | 310 ft | 3 kts | 87° |
| 2026-04-28 13:35 | 49.43466 | -2.61320 | 310 ft | 0 kts | 86° |
| 2026-04-28 13:35 | 49.43467 | -2.61294 | 310 ft | 15 kts | 85° |
| 2026-04-28 13:35 | 49.43472 | -2.61080 | 307 ft | 44 kts | 87° |
| 2026-04-28 13:36 | 49.43487 | -2.60437 | 357 ft | 72 kts | 82° |
| 2026-04-28 13:36 | 49.43514 | -2.59626 | 651 ft | 76 kts | 79° |
| 2026-04-28 13:36 | 49.43577 | -2.58796 | 917 ft | 86 kts | 76° |
| 2026-04-28 13:36 | 49.43780 | -2.57907 | 1211 ft | 91 kts | 49° |
| 2026-04-28 13:37 | 49.44338 | -2.57429 | 1560 ft | 97 kts | 21° |
| 2026-04-28 13:37 | 49.45035 | -2.57373 | 1917 ft | 103 kts | 10° |
| 2026-04-28 13:37 | 49.45734 | -2.57266 | 2242 ft | 99 kts | 26° |
| 2026-04-28 13:37 | 49.46324 | -2.56713 | 2480 ft | 109 kts | 43° |
| 2026-04-28 13:38 | 49.46965 | -2.55897 | 2482 ft | 129 kts | 43° |
| 2026-04-28 13:38 | 49.47795 | -2.55257 | 2488 ft | 142 kts | 26° |
| 2026-04-28 13:38 | 49.48748 | -2.54733 | 2477 ft | 148 kts | 25° |
| 2026-04-28 13:38 | 49.49677 | -2.54061 | 2466 ft | 149 kts | 30° |
| 2026-04-28 13:39 | 49.50605 | -2.53365 | 2469 ft | 146 kts | 30° |
| 2026-04-28 13:39 | 49.51501 | -2.52726 | 2469 ft | 139 kts | 29° |
| 2026-04-28 13:39 | 49.52364 | -2.52143 | 2470 ft | 133 kts | 30° |
| 2026-04-28 13:39 | 49.53179 | -2.51509 | 2473 ft | 131 kts | 31° |
| 2026-04-28 13:40 | 49.54034 | -2.51006 | 2476 ft | 131 kts | 26° |
| 2026-04-28 13:40 | 49.54882 | -2.50535 | 2473 ft | 128 kts | 27° |
| 2026-04-28 13:40 | 49.55674 | -2.49950 | 2475 ft | 126 kts | 33° |
| 2026-04-28 13:40 | 49.56469 | -2.49329 | 2329 ft | 132 kts | 34° |
| 2026-04-28 13:41 | 49.57249 | -2.48625 | 2362 ft | 128 kts | 34° |
| 2026-04-28 13:41 | 49.58021 | -2.47999 | 2447 ft | 125 kts | 31° |
| 2026-04-28 13:41 | 49.58835 | -2.47551 | 2492 ft | 126 kts | 23° |
| 2026-04-28 13:41 | 49.59659 | -2.47081 | 2487 ft | 126 kts | 27° |
| 2026-04-28 13:42 | 49.60480 | -2.46602 | 2487 ft | 126 kts | 27° |
| 2026-04-28 13:42 | 49.61306 | -2.46130 | 2504 ft | 127 kts | 26° |
| 2026-04-28 13:42 | 49.62134 | -2.45662 | 2503 ft | 127 kts | 26° |
| 2026-04-28 13:42 | 49.62966 | -2.45196 | 2503 ft | 127 kts | 26° |
| 2026-04-28 13:43 | 49.63799 | -2.44729 | 2501 ft | 128 kts | 26° |
| 2026-04-28 13:43 | 49.64631 | -2.44267 | 2499 ft | 126 kts | 26° |
| 2026-04-28 13:43 | 49.65439 | -2.43820 | 2497 ft | 125 kts | 26° |
| 2026-04-28 13:43 | 49.66267 | -2.43366 | 2497 ft | 124 kts | 26° |
| 2026-04-28 13:44 | 49.67074 | -2.42925 | 2502 ft | 125 kts | 26° |
| 2026-04-28 13:44 | 49.67900 | -2.42472 | 2503 ft | 127 kts | 26° |
| 2026-04-28 13:44 | 49.68744 | -2.42009 | 2501 ft | 127 kts | 25° |
| 2026-04-28 13:44 | 49.69565 | -2.41560 | 2499 ft | 126 kts | 26° |
| 2026-04-28 13:45 | 49.70400 | -2.41105 | 2497 ft | 125 kts | 26° |
| 2026-04-28 13:45 | 49.71211 | -2.40663 | 2498 ft | 125 kts | 25° |
| 2026-04-28 13:45 | 49.72043 | -2.40254 | 2551 ft | 126 kts | 15° |
| 2026-04-28 13:45 | 49.72954 | -2.40333 | 2509 ft | 133 kts | 5° |
| 2026-04-28 13:46 | 49.73879 | -2.40408 | 2511 ft | 134 kts | 5° |
| 2026-04-28 13:46 | 49.74811 | -2.40499 | 2510 ft | 135 kts | 4° |
| 2026-04-28 13:46 | 49.75744 | -2.40601 | 2509 ft | 134 kts | 5° |
| 2026-04-28 13:46 | 49.76672 | -2.40704 | 2511 ft | 134 kts | 4° |
| 2026-04-28 13:47 | 49.77599 | -2.40808 | 2509 ft | 133 kts | 4° |
| 2026-04-28 13:47 | 49.78526 | -2.40911 | 2510 ft | 134 kts | 5° |
| 2026-04-28 13:47 | 49.79457 | -2.41014 | 2515 ft | 134 kts | 4° |
| 2026-04-28 13:47 | 49.80391 | -2.41117 | 2513 ft | 135 kts | 3° |
| 2026-04-28 13:48 | 49.81334 | -2.41223 | 2516 ft | 136 kts | 4° |
| 2026-04-28 13:48 | 49.82278 | -2.41329 | 2517 ft | 136 kts | 5° |
| 2026-04-28 13:48 | 49.83218 | -2.41434 | 2523 ft | 135 kts | 5° |
| 2026-04-28 13:48 | 49.84145 | -2.41538 | 2663 ft | 135 kts | 4° |
| 2026-04-28 13:49 | 49.85095 | -2.41643 | 2817 ft | 138 kts | 4° |
| 2026-04-28 13:49 | 49.86062 | -2.41751 | 2975 ft | 140 kts | 4° |
| 2026-04-28 13:49 | 49.87040 | -2.41859 | 3131 ft | 142 kts | 4° |
| 2026-04-28 13:49 | 49.88030 | -2.41970 | 3288 ft | 143 kts | 4° |
| 2026-04-28 13:50 | 49.89024 | -2.42082 | 3443 ft | 143 kts | 4° |
| 2026-04-28 13:50 | 49.90022 | -2.42194 | 3603 ft | 145 kts | 4° |
| 2026-04-28 13:50 | 49.91033 | -2.42306 | 3751 ft | 147 kts | 3° |
| 2026-04-28 13:50 | 49.92054 | -2.42421 | 3908 ft | 148 kts | 4° |
| 2026-04-28 13:51 | 49.93083 | -2.42537 | 4075 ft | 148 kts | 4° |
| 2026-04-28 13:51 | 49.94113 | -2.42652 | 4230 ft | 149 kts | 4° |
| 2026-04-28 13:51 | 49.95148 | -2.42767 | 4383 ft | 150 kts | 3° |
| 2026-04-28 13:51 | 49.96190 | -2.42884 | 4539 ft | 151 kts | 2° |
| 2026-04-28 13:52 | 49.97238 | -2.43001 | 4702 ft | 152 kts | 2° |
| 2026-04-28 13:52 | 49.98282 | -2.43119 | 4853 ft | 153 kts | 3° |
| 2026-04-28 13:52 | 49.99343 | -2.43238 | 5010 ft | 153 kts | 3° |
| 2026-04-28 13:52 | 50.00406 | -2.43357 | 5163 ft | 153 kts | 2° |
| 2026-04-28 13:53 | 50.01472 | -2.43478 | 5314 ft | 154 kts | 3° |
| 2026-04-28 13:53 | 50.02546 | -2.43598 | 5468 ft | 155 kts | 3° |
| 2026-04-28 13:53 | 50.03627 | -2.43719 | 5628 ft | 156 kts | 4° |
| 2026-04-28 13:53 | 50.04712 | -2.43841 | 5784 ft | 156 kts | 3° |
| 2026-04-28 13:54 | 50.05796 | -2.43964 | 5939 ft | 156 kts | 4° |
| 2026-04-28 13:54 | 50.06881 | -2.44085 | 6095 ft | 157 kts | 3° |
| 2026-04-28 13:54 | 50.07970 | -2.44207 | 6252 ft | 158 kts | 2° |
| 2026-04-28 13:54 | 50.09068 | -2.44332 | 6410 ft | 159 kts | 3° |
| 2026-04-28 13:55 | 50.10169 | -2.44457 | 6567 ft | 159 kts | 3° |
| 2026-04-28 13:55 | 50.11272 | -2.44581 | 6720 ft | 159 kts | 4° |
| 2026-04-28 13:55 | 50.12375 | -2.44705 | 6868 ft | 159 kts | 3° |
| 2026-04-28 13:55 | 50.13481 | -2.44831 | 7015 ft | 160 kts | 2° |
| 2026-04-28 13:56 | 50.14614 | -2.44956 | 7039 ft | 167 kts | 3° |
| 2026-04-28 13:56 | 50.15794 | -2.45088 | 7039 ft | 172 kts | 2° |
| 2026-04-28 13:56 | 50.17000 | -2.45225 | 7029 ft | 175 kts | 3° |
| 2026-04-28 13:56 | 50.18212 | -2.45362 | 7038 ft | 175 kts | 1° |
| 2026-04-28 13:57 | 50.19908 | -2.45558 | 7037 ft | 176 kts | 1° |
| 2026-04-28 13:57 | 50.22359 | -2.45838 | 7040 ft | 177 kts | 1° |
| 2026-04-28 13:57 | 50.24819 | -2.46116 | 7040 ft | 177 kts | 1° |
| 2026-04-28 13:57 | 50.27281 | -2.46396 | 7040 ft | 177 kts | 2° |
| 2026-04-28 13:58 | 50.29748 | -2.46676 | 7040 ft | 177 kts | 1° |
| 2026-04-28 13:58 | 50.32208 | -2.46956 | 7040 ft | 177 kts | 1° |
| 2026-04-28 13:58 | 50.34669 | -2.47237 | 7039 ft | 177 kts | 2° |
| 2026-04-28 13:58 | 50.37129 | -2.47517 | 7040 ft | 178 kts | 1° |
| 2026-04-28 13:59 | 50.39596 | -2.47799 | 7036 ft | 178 kts | 2° |
| 2026-04-28 13:59 | 50.42055 | -2.48080 | 7048 ft | 177 kts | 2° |
| 2026-04-28 13:59 | 50.44517 | -2.48361 | 7049 ft | 178 kts | 2° |
| 2026-04-28 13:59 | 50.46994 | -2.48645 | 7048 ft | 178 kts | 2° |
| 2026-04-28 14:00 | 50.49462 | -2.48928 | 7056 ft | 178 kts | 2° |
| 2026-04-28 14:00 | 50.51925 | -2.49211 | 7055 ft | 177 kts | 2° |
| 2026-04-28 14:00 | 50.54386 | -2.49494 | 7055 ft | 177 kts | 2° |
| 2026-04-28 14:00 | 50.56846 | -2.49776 | 7056 ft | 177 kts | 2° |
| 2026-04-28 14:01 | 50.59310 | -2.50060 | 7064 ft | 177 kts | 2° |
| 2026-04-28 14:01 | 50.61773 | -2.50345 | 7064 ft | 177 kts | 2° |
| 2026-04-28 14:01 | 50.64224 | -2.50627 | 7062 ft | 176 kts | 2° |
| 2026-04-28 14:01 | 50.66674 | -2.50910 | 7064 ft | 177 kts | 2° |
| 2026-04-28 14:02 | 50.69131 | -2.51194 | 7068 ft | 177 kts | 2° |
| 2026-04-28 14:02 | 50.71584 | -2.51479 | 7068 ft | 176 kts | 3° |
| 2026-04-28 14:02 | 50.74037 | -2.51760 | 7073 ft | 177 kts | 2° |
| 2026-04-28 14:02 | 50.76485 | -2.51758 | 7079 ft | 175 kts | 9° |
| 2026-04-28 14:03 | 50.78882 | -2.51597 | 7083 ft | 171 kts | 9° |
| 2026-04-28 14:03 | 50.81246 | -2.51431 | 7083 ft | 171 kts | 10° |
| 2026-04-28 14:03 | 50.83600 | -2.51265 | 7087 ft | 171 kts | 9° |
| 2026-04-28 14:03 | 50.85973 | -2.51095 | 7083 ft | 171 kts | 8° |
| 2026-04-28 14:04 | 50.88390 | -2.50925 | 7078 ft | 173 kts | 9° |
| 2026-04-28 14:04 | 50.90765 | -2.50755 | 7079 ft | 173 kts | 9° |
| 2026-04-28 14:04 | 50.93176 | -2.50584 | 7079 ft | 174 kts | 8° |
| 2026-04-28 14:04 | 50.95583 | -2.50414 | 7079 ft | 173 kts | 9° |
| 2026-04-28 14:05 | 50.97999 | -2.50242 | 7084 ft | 175 kts | 9° |
| 2026-04-28 14:05 | 51.00417 | -2.50070 | 7085 ft | 173 kts | 9° |
| 2026-04-28 14:05 | 51.02826 | -2.49896 | 7079 ft | 174 kts | 8° |
| 2026-04-28 14:05 | 51.04811 | -2.49758 | 7078 ft | 173 kts | 9° |
| 2026-04-28 14:06 | 51.06017 | -2.49671 | 7078 ft | 173 kts | 9° |
| 2026-04-28 14:06 | 51.07215 | -2.49586 | 7079 ft | 172 kts | 9° |
| 2026-04-28 14:06 | 51.08418 | -2.49499 | 7083 ft | 173 kts | 8° |
| 2026-04-28 14:06 | 51.09622 | -2.49413 | 7083 ft | 174 kts | 9° |
| 2026-04-28 14:07 | 51.10836 | -2.49326 | 7085 ft | 175 kts | 9° |
| 2026-04-28 14:07 | 51.12050 | -2.49239 | 7090 ft | 175 kts | 9° |
| 2026-04-28 14:07 | 51.13265 | -2.49152 | 7086 ft | 175 kts | 8° |
| 2026-04-28 14:07 | 51.14478 | -2.49066 | 7088 ft | 175 kts | 9° |
| 2026-04-28 14:08 | 51.15697 | -2.48979 | 7084 ft | 175 kts | 9° |
| 2026-04-28 14:08 | 51.16912 | -2.48892 | 7085 ft | 175 kts | 10° |
| 2026-04-28 14:08 | 51.18127 | -2.48802 | 7084 ft | 174 kts | 9° |
| 2026-04-28 14:08 | 51.19332 | -2.48718 | 7084 ft | 174 kts | 8° |
| 2026-04-28 14:09 | 51.20541 | -2.48634 | 7085 ft | 174 kts | 9° |
| 2026-04-28 14:09 | 51.21747 | -2.48546 | 7091 ft | 173 kts | 9° |
| 2026-04-28 14:09 | 51.22953 | -2.48459 | 7087 ft | 174 kts | 9° |
| 2026-04-28 14:09 | 51.24144 | -2.48373 | 7087 ft | 173 kts | 9° |
| 2026-04-28 14:10 | 51.25349 | -2.48284 | 7089 ft | 174 kts | 8° |
| 2026-04-28 14:10 | 51.26553 | -2.48199 | 7089 ft | 174 kts | 9° |
| 2026-04-28 14:10 | 51.27764 | -2.48113 | 7093 ft | 174 kts | 10° |
| 2026-04-28 14:10 | 51.28965 | -2.48025 | 7089 ft | 173 kts | 8° |
| 2026-04-28 14:11 | 51.30168 | -2.47938 | 7093 ft | 173 kts | 8° |
| 2026-04-28 14:11 | 51.31368 | -2.47852 | 7089 ft | 173 kts | 9° |
| 2026-04-28 14:11 | 51.32568 | -2.47765 | 7096 ft | 173 kts | 10° |
| 2026-04-28 14:11 | 51.33773 | -2.47680 | 7103 ft | 173 kts | 11° |
| 2026-04-28 14:12 | 51.34977 | -2.47592 | 7103 ft | 173 kts | 10° |
| 2026-04-28 14:12 | 51.36180 | -2.47504 | 7102 ft | 173 kts | 9° |
| 2026-04-28 14:12 | 51.37381 | -2.47419 | 7098 ft | 173 kts | 10° |
| 2026-04-28 14:12 | 51.38579 | -2.47333 | 7102 ft | 172 kts | 10° |
| 2026-04-28 14:13 | 51.39779 | -2.47244 | 7104 ft | 173 kts | 10° |
| 2026-04-28 14:13 | 51.40984 | -2.47155 | 7104 ft | 173 kts | 10° |
| 2026-04-28 14:13 | 51.42190 | -2.47068 | 7104 ft | 174 kts | 9° |
| 2026-04-28 14:13 | 51.43392 | -2.46982 | 7100 ft | 173 kts | 10° |
| 2026-04-28 14:14 | 51.44595 | -2.46897 | 7102 ft | 172 kts | 11° |
| 2026-04-28 14:14 | 51.45789 | -2.46808 | 7106 ft | 172 kts | 10° |
| 2026-04-28 14:14 | 51.46983 | -2.46722 | 7104 ft | 172 kts | 9° |
| 2026-04-28 14:14 | 51.48184 | -2.46635 | 7103 ft | 173 kts | 10° |
| 2026-04-28 14:15 | 51.49383 | -2.46548 | 7102 ft | 173 kts | 10° |
| 2026-04-28 14:15 | 51.50581 | -2.46461 | 7104 ft | 172 kts | 10° |
| 2026-04-28 14:15 | 51.51780 | -2.46373 | 7102 ft | 172 kts | 10° |
| 2026-04-28 14:15 | 51.52975 | -2.46286 | 7103 ft | 172 kts | 9° |
| 2026-04-28 14:16 | 51.54172 | -2.46200 | 7108 ft | 172 kts | 10° |
| 2026-04-28 14:16 | 51.55367 | -2.46114 | 7103 ft | 172 kts | 11° |
| 2026-04-28 14:16 | 51.56563 | -2.46026 | 7103 ft | 172 kts | 12° |
| 2026-04-28 14:16 | 51.57759 | -2.45936 | 7105 ft | 173 kts | 11° |
| 2026-04-28 14:17 | 51.58964 | -2.45848 | 7104 ft | 174 kts | 11° |
| 2026-04-28 14:17 | 51.60171 | -2.45759 | 7109 ft | 174 kts | 11° |
| 2026-04-28 14:17 | 51.61382 | -2.45671 | 7111 ft | 175 kts | 11° |
| 2026-04-28 14:17 | 51.62598 | -2.45583 | 7108 ft | 175 kts | 11° |
| 2026-04-28 14:18 | 51.63813 | -2.45494 | 7110 ft | 175 kts | 11° |
| 2026-04-28 14:18 | 51.65025 | -2.45407 | 7113 ft | 174 kts | 11° |
| 2026-04-28 14:18 | 51.66238 | -2.45317 | 7114 ft | 174 kts | 11° |
| 2026-04-28 14:18 | 51.67446 | -2.45228 | 7115 ft | 174 kts | 11° |
| 2026-04-28 14:19 | 51.68651 | -2.45141 | 7116 ft | 174 kts | 11° |
| 2026-04-28 14:19 | 51.72641 | -2.44848 | 7124 ft | 174 kts | 11° |
| 2026-04-28 14:19 | 51.77411 | -2.44503 | 7139 ft | 160 kts | 12° |
| 2026-04-28 14:19 | 51.81625 | -2.44190 | 7141 ft | 151 kts | 14° |
| 2026-04-28 14:20 | 51.85826 | -2.43878 | 7130 ft | 152 kts | 14° |
| 2026-04-28 14:20 | 51.89996 | -2.43526 | 7122 ft | 149 kts | 20° |
| 2026-04-28 14:20 | 51.94052 | -2.42313 | 7141 ft | 149 kts | 21° |
| 2026-04-28 14:20 | 51.98131 | -2.41174 | 7133 ft | 148 kts | 21° |
| 2026-04-28 14:21 | 52.02188 | -2.40037 | 7117 ft | 147 kts | 21° |
| 2026-04-28 14:21 | 52.06211 | -2.38908 | 7141 ft | 148 kts | 21° |
| 2026-04-28 14:21 | 52.10027 | -2.37835 | 7140 ft | 148 kts | 21° |
| 2026-04-28 14:21 | 52.11047 | -2.37547 | 7138 ft | 149 kts | 21° |
| 2026-04-28 14:22 | 52.12070 | -2.37258 | 7136 ft | 148 kts | 21° |
| 2026-04-28 14:22 | 52.13078 | -2.36975 | 7132 ft | 147 kts | 21° |
| 2026-04-28 14:22 | 52.14081 | -2.36695 | 7133 ft | 147 kts | 21° |
| 2026-04-28 14:22 | 52.15086 | -2.36414 | 7146 ft | 147 kts | 21° |
| 2026-04-28 14:23 | 52.16101 | -2.36121 | 7141 ft | 149 kts | 21° |
| 2026-04-28 14:23 | 52.17128 | -2.35828 | 7144 ft | 150 kts | 21° |
| 2026-04-28 14:23 | 52.18155 | -2.35539 | 7146 ft | 150 kts | 21° |
| 2026-04-28 14:23 | 52.19179 | -2.35251 | 7143 ft | 149 kts | 21° |
| 2026-04-28 14:24 | 52.20203 | -2.34962 | 7145 ft | 149 kts | 21° |
| 2026-04-28 14:24 | 52.21229 | -2.34672 | 7149 ft | 150 kts | 21° |
| 2026-04-28 14:24 | 52.22253 | -2.34383 | 7143 ft | 149 kts | 21° |
| 2026-04-28 14:24 | 52.23278 | -2.34093 | 7143 ft | 149 kts | 21° |
| 2026-04-28 14:25 | 52.23956 | -2.33901 | 7147 ft | 149 kts | 21° |
| 2026-04-28 14:25 | 52.24979 | -2.33611 | 7145 ft | 150 kts | 21° |
| 2026-04-28 14:25 | 52.26008 | -2.33320 | 7146 ft | 149 kts | 21° |
| 2026-04-28 14:25 | 52.27029 | -2.33031 | 7149 ft | 149 kts | 19° |
| 2026-04-28 14:26 | 52.28049 | -2.32741 | 7149 ft | 150 kts | 19° |
| 2026-04-28 14:26 | 52.29081 | -2.32447 | 7150 ft | 151 kts | 19° |
| 2026-04-28 14:26 | 52.30119 | -2.32151 | 7151 ft | 151 kts | 19° |
| 2026-04-28 14:26 | 52.31154 | -2.31858 | 7152 ft | 151 kts | 19° |
| 2026-04-28 14:27 | 52.32188 | -2.31565 | 7152 ft | 148 kts | 19° |
| 2026-04-28 14:27 | 52.33202 | -2.31277 | 6902 ft | 151 kts | 19° |
| 2026-04-28 14:27 | 52.34226 | -2.30986 | 6552 ft | 149 kts | 19° |
| 2026-04-28 14:27 | 52.35271 | -2.30685 | 6111 ft | 153 kts | 19° |
| 2026-04-28 14:28 | 52.36337 | -2.30381 | 5603 ft | 158 kts | 18° |
| 2026-04-28 14:28 | 52.37429 | -2.30070 | 5097 ft | 160 kts | 18° |
| 2026-04-28 14:28 | 52.38528 | -2.29759 | 4579 ft | 161 kts | 18° |
| 2026-04-28 14:28 | 52.39630 | -2.29445 | 4071 ft | 161 kts | 17° |
| 2026-04-28 14:29 | 52.40734 | -2.29130 | 3595 ft | 159 kts | 17° |
| 2026-04-28 14:29 | 52.41775 | -2.28837 | 3335 ft | 146 kts | 17° |
| 2026-04-28 14:29 | 52.42747 | -2.28565 | 3083 ft | 138 kts | 17° |
| 2026-04-28 14:29 | 52.43679 | -2.28298 | 2823 ft | 133 kts | 16° |
| 2026-04-28 14:30 | 52.44525 | -2.27838 | 2569 ft | 125 kts | 29° |
| 2026-04-28 14:30 | 52.45236 | -2.27254 | 2323 ft | 123 kts | 31° |
| 2026-04-28 14:30 | 52.45985 | -2.26633 | 2181 ft | 114 kts | 31° |
| 2026-04-28 14:30 | 52.46665 | -2.26088 | 2164 ft | 105 kts | 31° |
| 2026-04-28 14:31 | 52.47320 | -2.25567 | 2030 ft | 105 kts | 31° |
| 2026-04-28 14:31 | 52.47981 | -2.25036 | 1897 ft | 108 kts | 31° |
| 2026-04-28 14:31 | 52.48659 | -2.24486 | 1772 ft | 109 kts | 31° |
| 2026-04-28 14:31 | 52.49370 | -2.24120 | 1698 ft | 118 kts | 347° |
| 2026-04-28 14:32 | 52.50202 | -2.24857 | 698 ft | 149 kts | 344° |
| 2026-04-28 14:32 | 52.50948 | -2.25373 | 405 ft | 92 kts | 346° |
| 2026-04-28 14:32 | 52.51457 | -2.25745 | 291 ft | 69 kts | 348° |
| 2026-04-28 14:32 | 52.51773 | -2.25978 | 282 ft | 35 kts | 335° |
| 2026-04-28 14:33 | 52.51938 | -2.26097 | 286 ft | 18 kts | 337° |
| 2026-04-28 14:33 | 52.52006 | -2.26171 | 284 ft | 9 kts | 313° |
| 2026-04-28 14:33 | 52.52084 | -2.26208 | 283 ft | 15 kts | 338° |
| 2026-04-28 14:33 | 52.52167 | -2.26298 | 279 ft | 13 kts | 247° |
| 2026-04-28 14:34 | 52.51986 | -2.26474 | 277 ft | 18 kts | 225° |
| 2026-04-28 14:34 | 52.51905 | -2.26636 | 272 ft | 18 kts | 230° |
| 2026-04-28 14:34 | 52.51820 | -2.26787 | 268 ft | 19 kts | 229° |
| 2026-04-28 14:35 | 52.51739 | -2.26814 | 264 ft | 14 kts | 104° |
| 2026-04-28 14:35 | 52.51718 | -2.26623 | 267 ft | 17 kts | 102° |
| 2026-04-28 14:35 | 52.51637 | -2.26652 | 265 ft | 18 kts | 216° |
| 2026-04-28 14:35 | 52.51560 | -2.26735 | 264 ft | 8 kts | 168° |
| 2026-04-28 14:36 | 52.51543 | -2.26659 | 267 ft | 10 kts | 94° |
| 2026-04-28 14:36 | 52.51536 | -2.26561 | 269 ft | 6 kts | 97° |
| 2026-04-28 14:36 | 52.51535 | -2.26517 | 270 ft | 4 kts | 98° |
| 2026-04-28 14:36 | 52.51531 | -2.26469 | 271 ft | 5 kts | 96° |
| 2026-04-28 14:37 | 52.51528 | -2.26422 | 271 ft | 5 kts | 97° |
| 2026-04-28 14:37 | 52.51521 | -2.26360 | 272 ft | 4 kts | 135° |
| 2026-04-28 14:37 | 52.51490 | -2.26356 | 273 ft | 6 kts | 162° |
| 2026-04-28 14:37 | 52.51496 | -2.26344 | 273 ft | 0 kts | 347° |
| 2026-04-28 14:39 | 52.51510 | -2.26355 | 273 ft | 7 kts | 346° |
| 2026-04-28 14:39 | 52.51519 | -2.26291 | 273 ft | 7 kts | 93° |
| 2026-04-28 14:40 | 52.51550 | -2.26272 | 273 ft | 5 kts | 18° |
| 2026-04-28 14:40 | 52.51567 | -2.26260 | 273 ft | 3 kts | 12° |
| 2026-04-28 14:40 | 52.51568 | -2.26250 | 273 ft | 0 kts | 186° |